Time;durP1;ratioP1;P1;durP2;ratioP2;P2;SDS_P1;SDS_P2;PMS_P1;PMS_P2;Temp;Humidity;BMP_temperature;BMP_pressure;BME280_temperature;BME280_humidity;BME280_pressure;Samples;Min_cycle;Max_cycle;Signal;HPM_P1;HPM_P2
2022/09/18 00:01:23;;;;;;;1.25;0.50;;;16.00;57.60;;;;;;2336358;53;20923;-76
2022/09/18 00:03:51;;;;;;;1.55;0.50;;;15.90;57.50;;;;;;2431346;53;20970;-75
2022/09/18 00:06:19;;;;;;;1.92;0.47;;;15.90;57.60;;;;;;2315751;53;21673;-75
2022/09/18 00:08:45;;;;;;;1.37;0.50;;;15.90;57.60;;;;;;2315434;53;21215;-75
2022/09/18 00:11:13;;;;;;;2.08;0.50;;;15.90;57.60;;;;;;2315935;53;21333;-76
2022/09/18 00:13:40;;;;;;;2.80;0.50;;;15.90;57.70;;;;;;2423645;53;21266;-76
2022/09/18 00:16:07;;;;;;;2.42;0.60;;;15.90;57.70;;;;;;2321212;53;21275;-75
2022/09/18 00:18:58;;;;;;;1.85;0.50;;;15.90;57.70;;;;;;2333178;54;21456;-76
2022/09/18 00:21:24;;;;;;;1.08;0.40;;;15.90;57.70;;;;;;2344855;53;21106;-76
2022/09/18 00:23:54;;;;;;;1.12;0.50;;;15.90;57.60;;;;;;2380737;53;21373;-75
2022/09/18 00:26:20;;;;;;;1.70;0.60;;;15.90;57.70;;;;;;2429248;53;21054;-76
2022/09/18 00:28:47;;;;;;;1.80;0.47;;;15.90;57.70;;;;;;2357402;53;21487;-75
2022/09/18 00:31:24;;;;;;;1.20;0.40;;;15.90;57.60;;;;;;2318777;53;20923;-76
2022/09/18 00:33:51;;;;;;;2.12;0.40;;;15.90;57.50;;;;;;2352989;53;20958;-76
2022/09/18 00:36:17;;;;;;;1.08;0.40;;;15.90;57.50;;;;;;2522261;53;21038;-75
2022/09/18 00:39:04;;;;;;;2.72;0.68;;;15.90;57.50;;;;;;2334497;53;21301;-76
2022/09/18 00:41:31;;;;;;;2.17;0.50;;;15.80;57.30;;;;;;2316845;53;21567;-74
2022/09/18 00:44:33;;;;;;;3.10;0.60;;;15.80;57.40;;;;;;2318085;53;20939;-77
2022/09/18 00:48:00;;;;;;;1.95;0.65;;;15.80;57.60;;;;;;2326898;53;20947;-75
2022/09/18 00:50:26;;;;;;;1.75;0.55;;;15.80;57.70;;;;;;2334455;53;21042;-77
2022/09/18 00:53:04;;;;;;;2.55;0.70;;;15.70;57.60;;;;;;2414439;53;21014;-75
2022/09/18 00:55:37;;;;;;;1.20;0.47;;;15.70;57.60;;;;;;2319261;53;21406;-74
2022/09/18 00:58:03;;;;;;;1.98;0.50;;;15.70;57.70;;;;;;2324380;53;21034;-76
2022/09/18 01:00:30;;;;;;;2.78;0.62;;;15.70;57.70;;;;;;2338417;53;21399;-74
2022/09/18 01:02:56;;;;;;;5.10;0.88;;;15.70;57.70;;;;;;2337904;53;20931;-76
2022/09/18 01:07:08;;;;;;;1.85;0.60;;;15.70;57.80;;;;;;2316815;53;21400;-76
2022/09/18 01:09:55;;;;;;;0.57;0.32;;;15.70;58.00;;;;;;2428657;53;21078;-74
2022/09/18 01:17:57;;;;;;;3.37;0.88;;;15.70;57.80;;;;;;2325437;53;21074;-75
2022/09/18 01:24:08;;;;;;;2.58;0.50;;;15.70;57.80;;;;;;2458761;53;21293;-76
2022/09/18 01:26:59;;;;;;;2.12;0.40;;;15.70;57.80;;;;;;2557800;53;20939;-77
2022/09/18 01:29:44;;;;;;;1.42;0.40;;;15.60;57.80;;;;;;2371071;53;21285;-75
2022/09/18 01:32:46;;;;;;;1.65;0.40;;;15.60;57.80;;;;;;2317619;53;21526;-75
2022/09/18 01:35:38;;;;;;;3.20;0.70;;;15.60;57.80;;;;;;2327228;53;21049;-76
2022/09/18 01:38:27;;;;;;;1.10;0.43;;;15.60;57.80;;;;;;2316996;53;20998;-77
2022/09/18 01:41:05;;;;;;;1.67;0.40;;;15.60;57.90;;;;;;2353695;53;21014;-75
2022/09/18 01:43:31;;;;;;;1.98;0.60;;;15.50;57.80;;;;;;2391575;53;21058;-76
2022/09/18 01:46:02;;;;;;;1.42;0.50;;;15.50;57.80;;;;;;2469606;53;20947;-75
2022/09/18 01:48:35;;;;;;;0.75;0.40;;;15.50;57.90;;;;;;2394572;53;20963;-75
2022/09/18 01:51:19;;;;;;;1.00;0.40;;;15.50;57.90;;;;;;2358710;53;20934;-74
2022/09/18 01:53:56;;;;;;;0.88;0.50;;;15.50;57.90;;;;;;2328775;53;21078;-75
2022/09/18 01:56:34;;;;;;;2.25;0.60;;;15.50;58.00;;;;;;2348743;53;21534;-75
2022/09/18 01:59:02;;;;;;;2.40;0.70;;;15.50;58.00;;;;;;2320519;53;21732;-76
2022/09/18 02:01:29;;;;;;;1.70;0.55;;;15.50;58.00;;;;;;2503272;53;21450;-75
2022/09/18 02:04:10;;;;;;;1.12;0.40;;;15.50;58.00;;;;;;2360364;53;21004;-75
2022/09/18 02:06:47;;;;;;;1.10;0.50;;;15.50;58.00;;;;;;2363366;53;21026;-74
2022/09/18 02:09:13;;;;;;;2.20;0.50;;;15.40;57.90;;;;;;2440728;53;20926;-76
2022/09/18 02:11:44;;;;;;;2.03;0.50;;;15.50;58.00;;;;;;2334950;53;21555;-75
2022/09/18 02:14:17;;;;;;;2.35;0.60;;;15.40;57.90;;;;;;2316934;53;20927;-75
2022/09/18 02:16:59;;;;;;;0.95;0.40;;;15.50;58.00;;;;;;2317122;53;20939;-75
2022/09/18 02:19:29;;;;;;;1.92;0.45;;;15.40;58.00;;;;;;2410441;53;20967;-74
2022/09/18 02:21:56;;;;;;;2.30;0.60;;;15.50;58.10;;;;;;2318115;55;21034;-75
2022/09/18 02:24:36;;;;;;;2.58;0.40;;;15.40;58.00;;;;;;2336923;53;20943;-75
2022/09/18 02:27:04;;;;;;;1.42;0.47;;;15.40;58.00;;;;;;2348391;53;20942;-74
2022/09/18 02:29:30;;;;;;;2.35;0.70;;;15.40;57.90;;;;;;2353740;53;21575;-75
2022/09/18 02:32:03;;;;;;;2.78;0.70;;;15.40;57.90;;;;;;2325713;53;21389;-75
2022/09/18 02:34:30;;;;;;;1.17;0.50;;;15.40;58.00;;;;;;2489870;54;21006;-75
2022/09/18 02:39:38;;;;;;;1.08;0.40;;;15.40;57.90;;;;;;2357710;53;21055;-75
2022/09/18 02:42:34;;;;;;;1.02;0.60;;;15.40;58.00;;;;;;2363162;53;21011;-75
2022/09/18 02:45:17;;;;;;;2.08;0.60;;;15.40;57.90;;;;;;2363411;53;21039;-75
2022/09/18 02:50:46;;;;;;;5.95;1.17;;;15.40;57.90;;;;;;2485153;53;21026;-75
2022/09/18 02:53:48;;;;;;;1.10;0.30;;;15.40;58.00;;;;;;2366254;53;20911;-75
2022/09/18 02:56:35;;;;;;;1.73;0.50;;;15.40;57.90;;;;;;2361769;53;21330;-75
2022/09/18 02:59:06;;;;;;;0.82;0.40;;;15.40;57.80;;;;;;2329376;53;20975;-75
2022/09/18 03:01:32;;;;;;;1.05;0.43;;;15.30;57.80;;;;;;2318155;53;20924;-75
2022/09/18 03:04:13;;;;;;;1.70;0.57;;;15.30;57.90;;;;;;2345951;53;21419;-75
2022/09/18 03:06:40;;;;;;;1.40;0.50;;;15.30;58.00;;;;;;2315897;54;21408;-75
2022/09/18 03:09:06;;;;;;;2.22;0.65;;;15.30;57.90;;;;;;2322538;53;20926;-75
2022/09/18 03:11:32;;;;;;;2.03;0.80;;;15.30;57.90;;;;;;2319354;53;21724;-75
2022/09/18 03:13:59;;;;;;;2.00;0.50;;;15.30;58.00;;;;;;2355143;53;21075;-75
2022/09/18 03:16:25;;;;;;;0.93;0.30;;;15.30;58.10;;;;;;2316557;53;21010;-76
2022/09/18 03:18:51;;;;;;;1.85;0.55;;;15.30;58.10;;;;;;2317061;53;20976;-75
2022/09/18 03:21:23;;;;;;;1.45;0.50;;;15.30;58.00;;;;;;2332643;53;20955;-75
2022/09/18 03:24:07;;;;;;;0.88;0.40;;;15.30;58.00;;;;;;2318396;54;21451;-76
2022/09/18 03:26:46;;;;;;;1.83;0.40;;;15.30;58.00;;;;;;2324637;53;21070;-74
2022/09/18 03:29:12;;;;;;;3.30;0.57;;;15.30;57.90;;;;;;2317287;53;21014;-75
2022/09/18 03:31:39;;;;;;;1.02;0.40;;;15.30;58.00;;;;;;2365356;53;21487;-75
2022/09/18 03:34:06;;;;;;;1.87;0.50;;;15.30;58.00;;;;;;2317189;53;20999;-76
2022/09/18 03:36:33;;;;;;;2.03;0.50;;;15.30;58.00;;;;;;2327006;53;21035;-75
2022/09/18 03:38:59;;;;;;;1.40;0.50;;;15.30;58.00;;;;;;2347190;53;20975;-75
2022/09/18 03:41:29;;;;;;;3.37;0.60;;;15.30;58.00;;;;;;2319327;53;20923;-76
2022/09/18 03:43:58;;;;;;;1.92;0.50;;;15.30;58.00;;;;;;2319539;53;21474;-75
2022/09/18 03:46:28;;;;;;;0.93;0.43;;;15.30;58.00;;;;;;2490305;53;22000;-75
2022/09/18 03:48:54;;;;;;;2.00;0.68;;;15.30;58.00;;;;;;2318474;53;21007;-75
2022/09/18 03:51:22;;;;;;;3.10;0.70;;;15.30;58.00;;;;;;2403789;53;21800;-75
2022/09/18 03:54:00;;;;;;;2.53;0.50;;;15.30;57.90;;;;;;2354268;53;21364;-75
2022/09/18 03:56:28;;;;;;;1.65;0.45;;;15.40;58.10;;;;;;2319439;53;21002;-75
2022/09/18 03:58:54;;;;;;;1.30;0.45;;;15.30;58.00;;;;;;2494535;53;20982;-76
2022/09/18 04:01:23;;;;;;;2.92;0.40;;;15.20;57.90;;;;;;2317727;53;20958;-75
2022/09/18 04:03:50;;;;;;;0.57;0.30;;;15.30;58.00;;;;;;2327467;53;21066;-75
2022/09/18 04:09:52;;;;;;;5.37;0.70;;;15.30;58.00;;;;;;2317052;53;21039;-75
2022/09/18 04:12:19;;;;;;;1.70;0.52;;;15.30;58.00;;;;;;2339998;53;20939;-74
2022/09/18 04:14:46;;;;;;;1.25;0.40;;;15.30;58.10;;;;;;2320809;53;20998;-75
2022/09/18 04:17:12;;;;;;;0.93;0.40;;;15.20;58.00;;;;;;2367854;53;20919;-75
2022/09/18 04:20:06;;;;;;;1.27;0.40;;;15.20;58.00;;;;;;2322495;53;21087;-76
2022/09/18 04:22:33;;;;;;;0.50;0.28;;;15.30;58.20;;;;;;2335403;53;21434;-75
2022/09/18 04:24:59;;;;;;;1.92;0.50;;;15.30;58.10;;;;;;2393373;53;21007;-75
2022/09/18 04:27:25;;;;;;;1.25;0.50;;;15.30;58.10;;;;;;2316860;53;20990;-75
2022/09/18 04:29:51;;;;;;;2.80;0.50;;;15.30;58.20;;;;;;2557513;53;21413;-75
2022/09/18 04:32:18;;;;;;;3.65;0.57;;;15.30;58.20;;;;;;2317151;53;20904;-75
2022/09/18 04:34:44;;;;;;;1.42;0.70;;;15.30;58.20;;;;;;2347929;53;21026;-75
2022/09/18 04:37:11;;;;;;;3.33;0.60;;;15.30;58.30;;;;;;2384841;53;20998;-75
2022/09/18 04:39:38;;;;;;;2.53;0.40;;;15.30;58.30;;;;;;2334592;53;21440;-75
2022/09/18 04:42:18;;;;;;;1.90;0.60;;;15.30;58.20;;;;;;2316320;53;20999;-75
2022/09/18 04:44:45;;;;;;;1.60;0.60;;;15.30;58.20;;;;;;2314920;53;21360;-75
2022/09/18 04:47:12;;;;;;;1.70;0.70;;;15.30;58.10;;;;;;2434181;53;21015;-75
2022/09/18 04:49:38;;;;;;;1.33;0.30;;;15.30;58.20;;;;;;2335959;53;21055;-76
2022/09/18 04:52:05;;;;;;;1.52;0.40;;;15.30;58.10;;;;;;2322608;53;21138;-75
2022/09/18 04:54:31;;;;;;;2.78;0.75;;;15.30;58.10;;;;;;2333028;53;20988;-75
2022/09/18 04:56:57;;;;;;;3.10;0.50;;;15.30;58.20;;;;;;2516400;53;21737;-75
2022/09/18 04:59:23;;;;;;;4.95;0.50;;;15.30;58.20;;;;;;2320152;53;21071;-75
2022/09/18 05:01:50;;;;;;;3.03;0.90;;;15.30;58.30;;;;;;2333943;53;20970;-75
2022/09/18 05:04:16;;;;;;;1.48;0.60;;;15.30;58.30;;;;;;2331033;53;20923;-76
2022/09/18 05:06:43;;;;;;;3.03;0.60;;;15.30;58.30;;;;;;2352767;53;21643;-75
2022/09/18 05:09:09;;;;;;;3.78;0.75;;;15.30;58.20;;;;;;2317147;53;20927;-75
2022/09/18 05:11:35;;;;;;;1.48;0.50;;;15.30;58.20;;;;;;2558030;53;20927;-75
2022/09/18 05:14:23;;;;;;;1.48;0.45;;;15.30;58.20;;;;;;2318910;53;20935;-76
2022/09/18 05:16:49;;;;;;;2.42;0.62;;;15.30;58.20;;;;;;2317153;53;20927;-76
2022/09/18 05:19:16;;;;;;;1.92;0.50;;;15.30;58.10;;;;;;2317985;53;20946;-76
2022/09/18 05:21:42;;;;;;;4.75;0.70;;;15.30;58.10;;;;;;2316791;53;21067;-75
2022/09/18 05:24:32;;;;;;;2.33;0.55;;;15.30;58.10;;;;;;2319360;53;21086;-74
2022/09/18 05:26:58;;;;;;;3.50;0.62;;;15.30;58.00;;;;;;2314412;53;21003;-75
2022/09/18 05:29:25;;;;;;;3.45;0.62;;;15.30;58.00;;;;;;2317247;53;20931;-75
2022/09/18 05:32:12;;;;;;;2.90;0.70;;;15.30;58.00;;;;;;2320746;53;20923;-75
2022/09/18 05:34:39;;;;;;;2.70;0.60;;;15.30;58.10;;;;;;2318048;53;20987;-75
2022/09/18 05:37:05;;;;;;;1.83;0.55;;;15.30;58.10;;;;;;2350635;53;21943;-75
2022/09/18 05:39:31;;;;;;;3.53;0.77;;;15.30;58.10;;;;;;2419044;53;20943;-75
2022/09/18 05:42:06;;;;;;;3.08;0.50;;;15.30;58.10;;;;;;2325331;53;21026;-76
2022/09/18 05:44:32;;;;;;;2.00;0.60;;;15.30;58.10;;;;;;2312045;54;20963;-75
2022/09/18 05:46:59;;;;;;;2.20;0.65;;;15.30;58.10;;;;;;2324105;53;21117;-75
2022/09/18 05:49:25;;;;;;;2.90;0.80;;;15.30;58.10;;;;;;2328199;53;20967;-79
2022/09/18 05:51:53;;;;;;;2.35;0.60;;;15.30;58.20;;;;;;2355918;53;20983;-76
2022/09/18 05:54:20;;;;;;;1.77;0.60;;;15.30;58.10;;;;;;2347100;53;20938;-75
2022/09/18 05:56:46;;;;;;;2.17;0.65;;;15.30;58.10;;;;;;2464663;53;20959;-77
2022/09/18 05:59:12;;;;;;;3.22;0.60;;;15.30;58.00;;;;;;2315228;53;21531;-75
2022/09/18 06:01:39;;;;;;;3.70;0.70;;;15.30;58.00;;;;;;2405385;53;21389;-76
2022/09/18 06:04:08;;;;;;;1.55;0.50;;;15.30;58.00;;;;;;2318262;53;21488;-76
2022/09/18 06:06:35;;;;;;;1.70;0.60;;;15.30;58.10;;;;;;2394715;53;20996;-77
2022/09/18 06:09:02;;;;;;;1.40;0.50;;;15.30;58.10;;;;;;2317534;53;20955;-77
2022/09/18 06:11:35;;;;;;;1.00;0.40;;;15.30;58.10;;;;;;2372034;53;20967;-76
2022/09/18 06:14:01;;;;;;;;;;;15.30;58.10;;;;;;2318893;53;21078;-75
2022/09/18 06:16:27;;;;;;;2.08;0.60;;;15.30;58.00;;;;;;2325039;53;20067;-76
2022/09/18 06:18:54;;;;;;;2.15;0.52;;;15.30;58.00;;;;;;2315646;53;20994;-75
2022/09/18 06:21:42;;;;;;;3.87;0.55;;;15.30;58.00;;;;;;2317049;53;21420;-75
2022/09/18 06:24:08;;;;;;;2.87;0.62;;;15.30;58.00;;;;;;2316501;53;20975;-75
2022/09/18 06:26:35;;;;;;;1.35;0.60;;;15.20;58.00;;;;;;2319277;53;20987;-77
2022/09/18 06:29:02;;;;;;;2.25;0.50;;;15.20;58.00;;;;;;2316442;53;21071;-75
2022/09/18 06:31:28;;;;;;;1.50;0.60;;;15.20;58.00;;;;;;2319023;54;21039;-77
2022/09/18 06:33:55;;;;;;;3.45;0.65;;;15.20;58.00;;;;;;2385883;53;20967;-75
2022/09/18 06:36:27;;;;;;;2.35;0.60;;;15.30;58.10;;;;;;2343300;53;21487;-74
2022/09/18 06:38:53;;;;;;;1.65;0.60;;;15.30;58.10;;;;;;2330515;53;21431;-77
2022/09/18 06:41:22;;;;;;;1.95;0.65;;;15.30;58.10;;;;;;2316693;53;21034;-77
2022/09/18 06:43:49;;;;;;;2.28;0.60;;;15.30;58.10;;;;;;2316420;53;20923;-77
2022/09/18 06:46:15;;;;;;;2.67;0.65;;;15.30;58.10;;;;;;2344297;53;20947;-77
2022/09/18 06:48:50;;;;;;;3.92;0.70;;;15.30;58.70;;;;;;2322831;53;20995;-75
2022/09/18 06:51:17;;;;;;;1.85;0.50;;;15.30;58.10;;;;;;2323543;53;21000;-75
2022/09/18 06:53:43;;;;;;;1.85;0.43;;;15.30;58.10;;;;;;2368448;53;21011;-77
2022/09/18 06:56:18;;;;;;;2.85;0.68;;;15.30;58.10;;;;;;2319690;53;20967;-76
2022/09/18 06:59:03;;;;;;;1.50;0.50;;;15.40;58.20;;;;;;2365215;53;21352;-75
2022/09/18 07:01:29;;;;;;;2.40;0.70;;;15.40;58.20;;;;;;2338289;53;21034;-76
2022/09/18 07:03:56;;;;;;;2.25;0.55;;;15.40;58.20;;;;;;2419315;53;21062;-78
2022/09/18 07:06:28;;;;;;;0.95;0.40;;;15.40;58.20;;;;;;2364364;53;21105;-78
2022/09/18 07:08:54;;;;;;;1.25;0.50;;;15.40;58.20;;;;;;2328145;53;20934;-78
2022/09/18 07:11:21;;;;;;;2.35;0.60;;;15.40;58.20;;;;;;2344280;53;20955;-77
2022/09/18 07:13:47;;;;;;;2.37;0.65;;;15.40;58.20;;;;;;2416978;53;20915;-77
2022/09/18 07:16:14;;;;;;;2.55;0.60;;;15.40;58.20;;;;;;2393862;53;21027;-76
2022/09/18 07:19:11;;;;;;;2.83;0.55;;;15.40;58.20;;;;;;2364381;53;20994;-76
2022/09/18 07:21:38;;;;;;;2.87;0.70;;;15.50;58.20;;;;;;2322303;53;20983;-76
2022/09/18 07:24:04;;;;;;;1.73;0.50;;;15.50;58.10;;;;;;2352414;53;21010;-76
2022/09/18 07:26:31;;;;;;;2.12;0.55;;;15.50;58.00;;;;;;2378629;53;21494;-77
2022/09/18 07:28:57;;;;;;;5.18;0.68;;;15.50;58.00;;;;;;2352147;53;20991;-77
2022/09/18 07:31:23;;;;;;;1.48;0.60;;;15.50;57.90;;;;;;2316430;53;20955;-77
2022/09/18 07:33:53;;;;;;;2.50;0.60;;;15.50;58.00;;;;;;2362173;53;21006;-79
2022/09/18 07:36:19;;;;;;;1.60;0.50;;;15.50;58.00;;;;;;2316011;53;20942;-76
2022/09/18 07:39:00;;;;;;;3.58;0.70;;;15.50;58.00;;;;;;2317102;53;20978;-78
2022/09/18 07:41:27;;;;;;;1.90;0.70;;;15.50;58.00;;;;;;2321233;53;21019;-77
2022/09/18 07:43:53;;;;;;;1.50;0.50;;;15.50;58.00;;;;;;2315556;53;21302;-76
2022/09/18 07:46:22;;;;;;;2.47;0.68;;;15.50;57.90;;;;;;2317346;53;20947;-77
2022/09/18 07:48:48;;;;;;;3.42;0.70;;;15.60;58.00;;;;;;2318310;53;21341;-77
2022/09/18 07:51:15;;;;;;;3.75;0.75;;;15.60;58.00;;;;;;2326855;53;20962;-77
2022/09/18 07:53:41;;;;;;;3.50;0.80;;;15.60;58.00;;;;;;2369111;53;21428;-78
2022/09/18 07:56:18;;;;;;;3.37;0.88;;;15.60;58.00;;;;;;2361940;53;21817;-75
2022/09/18 07:58:44;;;;;;;2.30;0.47;;;15.60;58.00;;;;;;2340938;53;21090;-76
2022/09/18 08:01:10;;;;;;;4.53;0.75;;;15.60;58.00;;;;;;2452868;53;20987;-76
2022/09/18 08:03:37;;;;;;;1.77;0.60;;;15.60;58.00;;;;;;2450575;53;20935;-75
2022/09/18 08:06:06;;;;;;;3.12;0.60;;;15.60;58.00;;;;;;2361703;53;20940;-77
2022/09/18 08:08:34;;;;;;;1.08;0.47;;;15.60;57.90;;;;;;2316853;53;20997;-76
2022/09/18 08:11:00;;;;;;;1.85;0.70;;;15.70;58.00;;;;;;2322122;53;21225;-79
2022/09/18 08:13:27;;;;;;;2.10;0.70;;;15.70;58.00;;;;;;2316116;53;21338;-76
2022/09/18 08:15:53;;;;;;;3.33;0.70;;;15.70;58.00;;;;;;2317070;53;20979;-77
2022/09/18 08:18:20;;;;;;;4.07;0.77;;;15.70;58.00;;;;;;2316315;53;21373;-77
2022/09/18 08:20:49;;;;;;;2.47;0.60;;;15.70;57.90;;;;;;2451105;53;20989;-76
2022/09/18 08:23:15;;;;;;;1.10;0.50;;;15.70;58.00;;;;;;2363142;53;20943;-76
2022/09/18 08:25:41;;;;;;;1.58;0.50;;;15.70;57.90;;;;;;2352980;53;21361;-76
2022/09/18 08:28:08;;;;;;;1.95;0.52;;;15.70;57.80;;;;;;2316254;53;21051;-76
2022/09/18 08:30:34;;;;;;;2.28;0.65;;;15.70;58.00;;;;;;2378773;53;21835;-77
2022/09/18 08:33:03;;;;;;;2.08;0.60;;;15.70;57.80;;;;;;2331269;53;21464;-77
2022/09/18 08:35:30;;;;;;;3.67;0.70;;;15.80;57.90;;;;;;2375000;53;20967;-77
2022/09/18 08:38:00;;;;;;;1.80;0.52;;;15.80;57.90;;;;;;2329765;53;20935;-76
2022/09/18 08:45:51;;;;;;;2.05;0.60;;;15.80;57.80;;;;;;2329346;53;21241;-76
2022/09/18 08:48:32;;;;;;;2.58;0.57;;;15.90;57.80;;;;;;2531483;52;21066;-77
2022/09/18 08:51:47;;;;;;;2.05;0.60;;;15.90;57.70;;;;;;2334671;53;21392;-77
2022/09/18 08:54:26;;;;;;;1.62;0.60;;;15.90;57.70;;;;;;2311716;53;21644;-77
2022/09/18 08:56:54;;;;;;;2.53;0.60;;;15.80;57.80;;;;;;2319775;53;20959;-76
2022/09/18 09:00:22;;;;;;;1.70;0.60;;;15.90;57.90;;;;;;2321794;53;21014;-77
2022/09/18 09:02:50;;;;;;;3.40;0.85;;;15.90;57.90;;;;;;2339323;53;20974;-78
2022/09/18 09:05:36;;;;;;;3.37;0.95;;;15.90;57.80;;;;;;2335082;53;21018;-77
2022/09/18 09:08:30;;;;;;;2.60;0.52;;;16.00;58.00;;;;;;2320754;53;21026;-76
2022/09/18 09:11:13;;;;;;;2.50;0.60;;;16.00;58.00;;;;;;2335834;53;21009;-77
2022/09/18 09:16:50;;;;;;;1.55;0.47;;;16.00;58.00;;;;;;2463461;54;21050;-77
2022/09/18 09:19:34;;;;;;;1.70;0.60;;;16.10;58.00;;;;;;2325825;53;21326;-76
2022/09/18 09:22:18;;;;;;;1.45;0.60;;;16.20;58.00;;;;;;2336498;53;20986;-76
2022/09/18 09:25:29;;;;;;;2.72;0.77;;;16.20;57.90;;;;;;2328116;53;21362;-75
2022/09/18 09:28:25;;;;;;;2.65;0.90;;;16.30;58.00;;;;;;2356953;53;20991;-76
2022/09/18 09:30:54;;;;;;;2.05;0.70;;;16.30;58.00;;;;;;2361376;53;21914;-76
2022/09/18 09:33:26;;;;;;;4.07;0.80;;;16.40;58.10;;;;;;2318523;53;21408;-77
2022/09/18 09:35:54;;;;;;;2.70;0.70;;;16.40;58.00;;;;;;2407133;53;21368;-78
2022/09/18 09:39:53;;;;;;;2.47;0.60;;;16.40;58.00;;;;;;2318662;53;20995;-76
2022/09/18 09:42:28;;;;;;;2.58;0.70;;;16.50;58.00;;;;;;2414826;53;21035;-76
2022/09/18 09:46:41;;;;;;;4.37;0.70;;;16.50;58.00;;;;;;2318345;53;20923;-77
2022/09/18 09:49:55;;;;;;;2.00;0.50;;;16.60;58.00;;;;;;2318399;53;21546;-77
2022/09/18 09:52:22;;;;;;;2.45;0.70;;;16.70;58.00;;;;;;2317389;53;21988;-76
2022/09/18 09:54:55;;;;;;;2.15;0.65;;;16.70;57.90;;;;;;2474300;53;21793;-76
2022/09/18 09:59:04;;;;;;;1.77;0.77;;;16.70;57.90;;;;;;2317855;53;20979;-76
2022/09/18 10:01:34;;;;;;;2.78;0.80;;;16.80;57.90;;;;;;2318836;53;21001;-77
2022/09/18 10:04:27;;;;;;;1.73;0.50;;;16.80;57.90;;;;;;2316356;53;20955;-76
2022/09/18 10:07:16;;;;;;;2.47;0.55;;;16.90;57.90;;;;;;2344003;53;21426;-77
2022/09/18 10:13:00;;;;;;;1.17;0.30;;;16.90;58.00;;;;;;2317010;53;20966;-78
2022/09/18 10:16:13;;;;;;;2.22;0.50;;;17.00;58.00;;;;;;2317283;53;21235;-77
2022/09/18 10:18:42;;;;;;;1.45;0.65;;;17.10;58.10;;;;;;2322060;53;20945;-77
2022/09/18 10:21:13;;;;;;;3.58;0.80;;;17.20;58.20;;;;;;2336935;53;20944;-77
2022/09/18 10:23:43;;;;;;;2.10;0.77;;;17.20;58.10;;;;;;2316683;53;20947;-77
2022/09/18 10:26:12;;;;;;;2.12;0.82;;;17.30;58.30;;;;;;2349521;53;20920;-78
2022/09/18 10:29:21;;;;;;;2.60;0.70;;;17.30;58.20;;;;;;2354706;53;20996;-77
2022/09/18 10:31:51;;;;;;;3.70;1.00;;;17.30;57.80;;;;;;2519064;53;20966;-76
2022/09/18 10:41:10;;;;;;;3.60;1.40;;;17.40;58.00;;;;;;2321055;53;21054;-79
2022/09/18 10:43:50;;;;;;;2.75;0.70;;;17.60;57.40;;;;;;2320256;53;21060;-77
2022/09/18 10:46:25;;;;;;;3.65;0.70;;;17.70;57.70;;;;;;2319405;53;21026;-77
2022/09/18 10:48:52;;;;;;;2.45;0.68;;;17.70;56.90;;;;;;2231730;53;6132537;-76
2022/09/18 10:51:30;;;;;;;2.35;0.50;;;17.70;56.80;;;;;;2492986;53;21023;-77
2022/09/18 10:54:13;;;;;;;2.87;0.70;;;17.70;56.50;;;;;;2474889;53;20943;-77
2022/09/18 10:56:39;;;;;;;2.35;0.80;;;17.80;56.70;;;;;;2342451;53;20972;-77
2022/09/18 10:59:30;;;;;;;2.40;0.68;;;17.80;56.70;;;;;;2410597;53;21003;-76
2022/09/18 11:01:58;;;;;;;2.83;0.60;;;17.90;55.80;;;;;;2319647;53;21024;-77
2022/09/18 11:04:26;;;;;;;1.85;0.40;;;18.00;56.20;;;;;;2448877;53;21490;-77
2022/09/18 11:07:07;;;;;;;3.67;0.60;;;18.00;56.00;;;;;;2364998;53;21546;-76
2022/09/18 11:09:37;;;;;;;2.28;0.60;;;18.10;55.50;;;;;;2324224;53;20903;-77
2022/09/18 11:12:04;;;;;;;2.95;0.88;;;18.20;55.70;;;;;;2427276;53;21373;-76
2022/09/18 11:14:38;;;;;;;3.85;1.00;;;18.30;55.90;;;;;;2381854;53;20935;-73
2022/09/18 11:17:04;;;;;;;2.85;1.70;;;18.40;55.50;;;;;;2323512;53;21011;-76
2022/09/18 11:19:40;;;;;;;2.55;1.10;;;18.40;55.60;;;;;;2334468;53;20984;-76
2022/09/18 11:22:31;;;;;;;2.05;0.80;;;18.50;55.90;;;;;;2561107;53;21302;-76
2022/09/18 11:27:50;;;;;;;2.28;0.80;;;18.60;55.30;;;;;;2392601;53;21658;-76
2022/09/18 11:30:28;;;;;;;1.85;0.65;;;18.70;54.80;;;;;;2396492;53;20947;-77
2022/09/18 11:33:25;;;;;;;3.30;1.10;;;18.80;54.40;;;;;;2445148;53;20996;-77
2022/09/18 11:36:02;;;;;;;3.25;0.85;;;18.90;54.30;;;;;;2361510;53;21036;-76
2022/09/18 11:38:28;;;;;;;3.17;1.20;;;18.90;54.40;;;;;;2385354;53;21105;-80
2022/09/18 11:40:56;;;;;;;3.15;1.20;;;19.00;54.50;;;;;;2335703;53;20958;-77
2022/09/18 11:43:32;;;;;;;2.30;0.95;;;19.00;54.10;;;;;;2407825;53;21062;-77
2022/09/18 11:51:56;;;;;;;3.45;0.90;;;19.10;54.00;;;;;;2316584;53;20939;-77
2022/09/18 11:54:52;;;;;;;1.10;0.30;;;19.20;54.20;;;;;;2342158;53;21025;-76
2022/09/18 11:57:38;;;;;;;1.35;0.32;;;19.30;53.10;;;;;;2317020;53;20979;-78
2022/09/18 12:00:21;;;;;;;2.10;0.55;;;19.30;53.60;;;;;;2379588;53;20982;-77
2022/09/18 12:03:19;;;;;;;2.05;0.70;;;19.40;53.00;;;;;;2356046;53;21487;-76
2022/09/18 12:06:11;;;;;;;3.83;0.68;;;19.40;52.50;;;;;;2318894;53;20935;-76
2022/09/18 12:09:01;;;;;;;2.83;0.50;;;19.40;52.30;;;;;;2316533;53;21488;-78
2022/09/18 12:11:51;;;;;;;1.33;0.40;;;19.40;52.60;;;;;;2317861;53;20927;-77
2022/09/18 12:14:41;;;;;;;1.37;0.40;;;19.50;52.50;;;;;;2316296;55;20927;-77
2022/09/18 12:17:36;;;;;;;1.08;0.50;;;19.50;52.30;;;;;;2332289;53;21006;-77
2022/09/18 12:20:07;;;;;;;3.25;0.62;;;19.50;51.90;;;;;;2392101;53;20943;-77
2022/09/18 12:22:43;;;;;;;2.03;0.50;;;19.60;52.70;;;;;;2340831;53;20923;-77
2022/09/18 12:25:37;;;;;;;1.27;0.40;;;19.60;52.30;;;;;;2319677;53;20955;-76
2022/09/18 12:31:15;;;;;;;2.40;0.40;;;19.60;52.00;;;;;;2377047;53;20943;-76
2022/09/18 12:33:58;;;;;;;0.68;0.30;;;19.70;52.00;;;;;;2338889;53;21054;-75
2022/09/18 12:36:49;;;;;;;1.30;0.40;;;19.80;51.80;;;;;;2377899;53;20950;-76
2022/09/18 12:41:09;;;;;;;1.48;0.50;;;19.80;51.20;;;;;;2321607;53;21030;-77
2022/09/18 12:46:55;;;;;;;1.33;0.50;;;19.90;51.60;;;;;;2355673;53;21689;-75
2022/09/18 12:56:20;;;;;;;0.88;0.35;;;19.90;51.60;;;;;;2393784;53;21007;-77
2022/09/18 12:59:32;;;;;;;1.73;0.60;;;20.00;51.40;;;;;;2345566;53;20986;-76
2022/09/18 13:03:32;;;;;;;1.73;0.60;;;20.10;51.50;;;;;;2418044;53;21677;-77
2022/09/18 13:06:13;;;;;;;2.05;0.37;;;20.10;51.80;;;;;;2317822;53;22508;-77
2022/09/18 13:08:56;;;;;;;2.78;0.40;;;20.10;51.90;;;;;;2317744;53;20992;-78
2022/09/18 13:11:37;;;;;;;1.05;0.35;;;20.10;51.40;;;;;;2318081;53;20998;-77
2022/09/18 13:15:57;;;;;;;1.58;0.40;;;20.10;51.40;;;;;;2319827;53;20919;-76
2022/09/18 13:18:51;;;;;;;1.50;0.40;;;20.20;50.20;;;;;;2322058;53;20979;-77
2022/09/18 13:21:24;;;;;;;1.17;0.40;;;20.20;50.80;;;;;;2356725;53;21353;-77
2022/09/18 13:23:57;;;;;;;1.23;0.37;;;20.20;50.60;;;;;;2317273;53;21492;-76
2022/09/18 13:26:29;;;;;;;1.60;0.50;;;20.20;50.10;;;;;;2325574;53;20975;-76
2022/09/18 13:28:56;;;;;;;0.85;0.47;;;20.20;49.80;;;;;;2375489;53;21519;-79
2022/09/18 13:31:40;;;;;;;1.45;0.45;;;20.20;50.00;;;;;;2327005;53;21813;-76
2022/09/18 13:34:16;;;;;;;1.00;0.30;;;20.20;49.00;;;;;;2468280;53;21543;-76
2022/09/18 13:36:43;;;;;;;1.15;0.35;;;20.20;49.30;;;;;;2319173;53;20927;-76
2022/09/18 13:40:32;;;;;;;0.98;0.35;;;20.20;49.70;;;;;;2317230;53;21022;-76
2022/09/18 13:43:19;;;;;;;2.80;0.30;;;20.20;49.30;;;;;;2317220;53;20955;-76
2022/09/18 13:45:45;;;;;;;0.55;0.30;;;20.30;49.10;;;;;;2317199;53;21086;-75
2022/09/18 13:48:28;;;;;;;1.33;0.32;;;20.30;49.70;;;;;;2347465;53;20959;-76
2022/09/18 13:51:02;;;;;;;0.88;0.22;;;20.20;49.20;;;;;;2333020;53;21006;-75
2022/09/18 13:53:40;;;;;;;0.57;0.30;;;20.20;49.40;;;;;;2338723;53;21551;-77
2022/09/18 13:56:14;;;;;;;2.08;0.50;;;20.20;48.90;;;;;;2369706;53;20939;-76
2022/09/18 13:59:17;;;;;;;1.58;0.45;;;20.30;49.10;;;;;;2426767;53;20991;-76
2022/09/18 14:01:58;;;;;;;0.43;0.20;;;20.20;48.60;;;;;;2325257;53;20963;-76
2022/09/18 14:07:57;;;;;;;0.65;0.28;;;20.20;48.70;;;;;;2317867;53;20926;-76
2022/09/18 14:30:16;;;;;;;0.95;0.28;;;20.20;49.00;;;;;;2316649;53;20922;-76
2022/09/18 14:36:04;;;;;;;0.73;0.30;;;20.00;49.90;;;;;;2301566;54;20923;-78
2022/09/18 14:38:48;;;;;;;0.88;0.30;;;19.90;49.70;;;;;;2304202;54;20947;-77
2022/09/18 14:41:20;;;;;;;1.65;0.43;;;19.90;49.60;;;;;;2326222;54;20985;-77
2022/09/18 14:44:02;;;;;;;2.17;0.30;;;19.90;50.00;;;;;;2313299;54;21100;-77
2022/09/18 14:46:30;;;;;;;0.77;0.20;;;19.90;50.00;;;;;;2320754;54;21606;-79
2022/09/18 14:48:56;;;;;;;0.93;0.30;;;19.80;50.20;;;;;;2316613;53;21038;-77
2022/09/18 14:51:25;;;;;;;1.10;0.40;;;19.80;50.40;;;;;;2320435;54;20926;-78
2022/09/18 14:53:53;;;;;;;1.05;0.32;;;19.80;50.50;;;;;;2326993;54;20930;-75
2022/09/18 14:56:30;;;;;;;0.82;0.20;;;19.80;50.50;;;;;;2323112;54;21824;-78
2022/09/18 14:58:58;;;;;;;1.02;0.40;;;19.90;50.50;;;;;;2338299;53;21060;-76
2022/09/18 15:01:31;;;;;;;1.87;0.50;;;19.90;50.60;;;;;;2328809;53;21482;-78